You are listening to:
KOSH Tower (North+South) - Oshkosh, Wisconsin, United States

KOSH 041753Z 22008G16KT 10SM CLR 00/M09 A3004 RMK AO2 SLP190 T00001089 10000 21072 58022

If stream doesn't start automatically press the play button
If stream stops then reload player then press play